Ana Sayfa
METAR-TAF:

METAR-TAF

Havaalanları :

David Wayne Hooks Memorial Airport

Houston / Tomball, Teksas, Amerika Birleşik Devletleri

Enlem: 30-04-03N, Boylam: 095-33-22W, yükseklik: 46 m

Güncel hava durumu gözlemi

Rapor saat 05:53 UTC de 1 saat ve 4 dakika önce yapıldı.
Rüzgar güney/güneybatıdan 5 kt
Sıcaklık 26°C
Nem 89%
Basınç 1015 hPa
Görüş mesafesi: 16.1 km
Açık gökyüzü

METAR: KDWH 160553Z 20005KT 10SM CLR 26/24 A2997 RMK AO2 SLP146 T02610239 10333 20261 403440250 50001

Saat: 01:57 (06:57 UTC)


TAF: eksik

4.000'den fazla havaalanı için hava durumu gözlemleri ve tahminleri (METAR ve TAF raporları).

Kullanılabilir istasyonlar harita üzerinde sarı ve kırmızı noktalarla gösterilir.

İstasyonun adını görmek için fareyi noktanın üzerinde gezdirin.

Sonrasında hava gözlem ve tahminlerini görmek için tıklayın.

Haritayı değiştirmek için: yaklaştırmak için siyah artı işaretli yeşil düğmeye ve uzaklaştırmak için de eksi işaretli düğmeye hızla tıklayın; bitişik haritalar için yeşil okları kullanın.


METAR-TAF: